Time;durP1;ratioP1;P1;durP2;ratioP2;P2;SDS_P1;SDS_P2;PMS_P1;PMS_P2;Temp;Humidity;BMP_temperature;BMP_pressure;BME280_temperature;BME280_humidity;BME280_pressure;Samples;Min_cycle;Max_cycle;Signal;HPM_P1;HPM_P2
2021/06/16 00:00:57;;;;;;;12.63;7.00;;;16.10;99.90;;;;;;4989991;28;20320;-77
2021/06/16 00:03:24;;;;;;;13.43;7.07;;;16.00;99.90;;;;;;4988904;28;20300;-77
2021/06/16 00:05:50;;;;;;;12.33;6.83;;;15.90;99.90;;;;;;4988730;28;20232;-76
2021/06/16 00:08:18;;;;;;;9.53;6.77;;;15.90;99.90;;;;;;4993309;28;20259;-76
2021/06/16 00:10:44;;;;;;;8.87;6.90;;;15.80;99.90;;;;;;4988299;28;20407;-76
2021/06/16 00:13:11;;;;;;;15.63;7.60;;;15.80;99.90;;;;;;4980610;28;20210;-76
2021/06/16 00:15:43;;;;;;;10.20;7.40;;;15.80;99.90;;;;;;4993575;28;20233;-77
2021/06/16 00:18:10;;;;;;;11.27;7.30;;;15.80;99.90;;;;;;4996206;28;20244;-76
2021/06/16 00:20:38;;;;;;;10.67;7.20;;;15.70;99.90;;;;;;4987687;28;20229;-77
2021/06/16 00:23:05;;;;;;;10.70;7.27;;;15.70;99.90;;;;;;4974485;28;20227;-76
2021/06/16 00:25:32;;;;;;;11.47;6.97;;;15.70;99.90;;;;;;4971311;28;20268;-76
2021/06/16 00:27:59;;;;;;;13.70;8.23;;;15.60;99.90;;;;;;4975427;28;20957;-76
2021/06/16 00:30:30;;;;;;;11.83;8.70;;;15.60;99.90;;;;;;4982401;28;20221;-76
2021/06/16 00:32:59;;;;;;;10.73;7.87;;;15.60;99.90;;;;;;4973694;28;20586;-76
2021/06/16 00:35:26;;;;;;;11.70;8.20;;;15.50;99.90;;;;;;4971712;28;20354;-77
2021/06/16 00:37:54;;;;;;;13.37;7.67;;;15.50;99.90;;;;;;4970854;28;20213;-76
2021/06/16 00:40:25;;;;;;;13.67;8.20;;;15.40;99.90;;;;;;4970499;28;20232;-78
2021/06/16 00:42:52;;;;;;;14.13;8.60;;;15.40;99.90;;;;;;4970540;28;20221;-78
2021/06/16 00:45:20;;;;;;;16.47;8.37;;;15.40;99.90;;;;;;4972910;28;20221;-75
2021/06/16 00:47:48;;;;;;;10.67;8.00;;;15.40;99.90;;;;;;4985433;28;20295;-77
2021/06/16 00:50:17;;;;;;;12.83;7.87;;;15.30;99.90;;;;;;4987717;28;20300;-76
2021/06/16 00:52:44;;;;;;;15.77;7.40;;;15.30;99.90;;;;;;4978714;28;20347;-76
2021/06/16 00:55:11;;;;;;;11.50;6.60;;;15.30;99.90;;;;;;4973027;28;20304;-77
2021/06/16 00:57:39;;;;;;;15.10;7.00;;;15.20;99.90;;;;;;4974002;28;20200;-77
2021/06/16 01:00:09;;;;;;;12.67;7.53;;;15.20;99.90;;;;;;4970849;28;20241;-75
2021/06/16 01:02:42;;;;;;;11.97;7.30;;;15.10;99.90;;;;;;4970922;28;20797;-77
2021/06/16 01:07:42;;;;;;;12.80;7.30;;;15.10;99.90;;;;;;4968985;28;20221;-74
2021/06/16 01:10:16;;;;;;;12.90;7.63;;;15.00;99.90;;;;;;4973211;28;20319;-75
2021/06/16 01:12:47;;;;;;;10.73;7.37;;;15.00;99.90;;;;;;4955158;28;20678;-75
2021/06/16 01:15:19;;;;;;;17.80;8.53;;;15.00;99.90;;;;;;4955112;28;20288;-75
2021/06/16 01:17:50;;;;;;;13.83;8.97;;;15.00;99.90;;;;;;4965095;28;20233;-72
2021/06/16 01:20:33;;;;;;;11.67;8.03;;;15.00;99.90;;;;;;4967573;28;20293;-73
2021/06/16 01:23:25;;;;;;;10.07;6.90;;;15.10;99.90;;;;;;4956495;28;20307;-75
2021/06/16 01:26:08;;;;;;;10.63;7.90;;;15.10;99.90;;;;;;4955355;28;20779;-75
2021/06/16 01:28:38;;;;;;;13.83;8.07;;;15.10;99.90;;;;;;4955512;28;20670;-75
2021/06/16 01:31:07;;;;;;;15.40;7.70;;;15.20;99.90;;;;;;4955515;28;20312;-74
2021/06/16 01:33:35;;;;;;;12.57;6.97;;;15.20;99.90;;;;;;4954960;28;20209;-75
2021/06/16 01:36:02;;;;;;;12.40;7.07;;;15.20;99.90;;;;;;4954713;28;20577;-75
2021/06/16 01:38:29;;;;;;;10.87;7.03;;;15.30;99.90;;;;;;4952539;28;20313;-75
2021/06/16 01:41:00;;;;;;;14.87;7.70;;;15.30;99.90;;;;;;4951364;28;20233;-74
2021/06/16 01:43:29;;;;;;;11.10;7.27;;;15.30;99.90;;;;;;4952622;28;20218;-73
2021/06/16 01:45:58;;;;;;;10.73;7.33;;;15.30;99.90;;;;;;4954942;28;20237;-75
2021/06/16 01:48:26;;;;;;;11.67;7.87;;;15.30;99.90;;;;;;4966785;28;20292;-75
2021/06/16 01:50:54;;;;;;;13.13;7.73;;;15.30;99.90;;;;;;4966855;28;20336;-75
2021/06/16 01:53:23;;;;;;;12.83;7.73;;;15.30;99.90;;;;;;4953742;28;20743;-73
2021/06/16 01:55:50;;;;;;;12.60;7.63;;;15.30;99.90;;;;;;4952785;28;20313;-75
2021/06/16 01:58:19;;;;;;;16.80;7.43;;;15.40;99.90;;;;;;4949805;28;20201;-75
2021/06/16 02:00:49;;;;;;;11.73;6.90;;;15.40;99.90;;;;;;4954398;28;20244;-74
2021/06/16 02:03:16;;;;;;;14.70;7.17;;;15.40;99.90;;;;;;4954110;28;20205;-75
2021/06/16 02:05:43;;;;;;;11.03;6.87;;;15.40;99.90;;;;;;4953065;28;20360;-74
2021/06/16 02:08:13;;;;;;;14.07;7.63;;;15.30;99.90;;;;;;4954088;28;20214;-75
2021/06/16 02:10:43;;;;;;;16.40;7.80;;;15.30;99.90;;;;;;4954076;28;20313;-75
2021/06/16 02:13:11;;;;;;;15.67;7.57;;;15.20;99.90;;;;;;4954954;28;20300;-74
2021/06/16 02:15:42;;;;;;;16.03;7.50;;;15.20;99.90;;;;;;4956919;28;20208;-75
2021/06/16 02:18:11;;;;;;;14.63;8.47;;;15.10;99.90;;;;;;4970963;28;20228;-75
2021/06/16 02:20:39;;;;;;;11.90;7.67;;;15.10;99.90;;;;;;4971038;28;20320;-75
2021/06/16 02:23:06;;;;;;;13.43;7.47;;;15.10;99.90;;;;;;4960015;28;20233;-74
2021/06/16 02:25:34;;;;;;;13.17;8.23;;;15.00;99.90;;;;;;4958584;28;20312;-75
2021/06/16 02:28:01;;;;;;;15.10;7.87;;;15.00;99.90;;;;;;4960236;28;20225;-75
2021/06/16 02:30:28;;;;;;;17.97;8.27;;;15.00;99.90;;;;;;4960060;28;20201;-75
2021/06/16 02:32:54;;;;;;;11.10;7.10;;;14.90;99.90;;;;;;4961530;28;20361;-75
2021/06/16 02:35:23;;;;;;;10.60;7.07;;;14.90;99.90;;;;;;4957768;28;20236;-74
2021/06/16 02:37:54;;;;;;;11.50;7.27;;;14.80;99.90;;;;;;4958854;28;20225;-75
2021/06/16 02:40:22;;;;;;;10.63;7.17;;;;;;;;;;4954443;28;20301;-75
2021/06/16 02:42:50;;;;;;;14.70;7.17;;;;;;;;;;4958774;28;20221;-75
2021/06/16 02:45:19;;;;;;;12.77;7.57;;;;;;;;;;4956119;28;20226;-74
2021/06/16 02:47:52;;;;;;;14.90;7.83;;;;;;;;;;4965228;28;20245;-75
2021/06/16 02:50:21;;;;;;;9.87;7.10;;;;;;;;;;4969214;28;20715;-75
2021/06/16 02:52:50;;;;;;;17.37;7.47;;;;;;;;;;4959745;28;20228;-75
2021/06/16 02:55:17;;;;;;;13.33;7.10;;;;;;;;;;4954103;28;20726;-75
2021/06/16 02:57:46;;;;;;;13.40;8.03;;;;;;;;;;4956438;28;20389;-73
2021/06/16 03:00:15;;;;;;;17.37;8.57;;;;;;;;;;4956324;28;20305;-75
2021/06/16 03:02:46;;;;;;;11.03;7.73;;;;;;;;;;4956911;28;22823;-74
2021/06/16 03:05:15;;;;;;;15.70;8.47;;;;;;;;;;4954619;28;20233;-76
2021/06/16 03:07:43;;;;;;;12.27;7.93;;;;;;;;;;4957447;28;20210;-75
2021/06/16 03:10:12;;;;;;;9.97;7.37;;;;;;;;;;4954727;28;20297;-75
2021/06/16 03:12:40;;;;;;;12.03;7.67;;;;;;;;;;4957482;28;20212;-75
2021/06/16 03:15:08;;;;;;;12.17;8.30;;;;;;;;;;4969881;28;20301;-75
2021/06/16 03:17:36;;;;;;;13.90;7.87;;;;;;;;;;4967030;28;20210;-75
2021/06/16 03:20:04;;;;;;;12.57;7.60;;;;;;;;;;4969302;28;20213;-75
2021/06/16 03:22:32;;;;;;;15.53;7.83;;;;;;;;;;4962807;28;20222;-74
2021/06/16 03:25:00;;;;;;;11.97;7.77;;;;;;;;;;4955521;28;20709;-74
2021/06/16 03:27:29;;;;;;;12.83;7.93;;;;;;;;;;4956045;28;20202;-74
2021/06/16 03:29:57;;;;;;;15.60;7.73;;;;;;;;;;4956954;28;20969;-73
2021/06/16 03:32:25;;;;;;;13.13;8.03;;;;;;;;;;4956456;28;20230;-74
2021/06/16 03:34:52;;;;;;;13.43;7.43;;;;;;;;;;4958539;28;20312;-73
2021/06/16 03:37:20;;;;;;;12.27;8.17;;;;;;;;;;4956352;28;20276;-73
2021/06/16 03:39:51;;;;;;;11.97;7.40;;;;;;;;;;4958462;28;20856;-73
2021/06/16 03:42:18;;;;;;;14.43;7.37;;;;;;;;;;4957842;28;20225;-74
2021/06/16 03:44:48;;;;;;;12.17;7.30;;;;;;;;;;4958167;28;20348;-75
2021/06/16 03:47:17;;;;;;;10.63;6.87;;;;;;;;;;4964257;28;20300;-74
2021/06/16 03:49:44;;;;;;;11.73;7.10;;;;;;;;;;4969387;28;20304;-74
2021/06/16 03:52:13;;;;;;;11.47;7.37;;;;;;;;;;4963520;28;20229;-75
2021/06/16 03:54:41;;;;;;;12.73;7.40;;;;;;;;;;4956583;28;20209;-75
2021/06/16 03:57:09;;;;;;;12.23;6.90;;;;;;;;;;4957484;28;20328;-76
2021/06/16 03:59:37;;;;;;;14.07;7.70;;;;;;;;;;4960411;28;20680;-74
2021/06/16 04:02:06;;;;;;;14.60;7.63;;;;;;;;;;4954972;28;20233;-75
2021/06/16 04:04:34;;;;;;;11.03;6.77;;;;;;;;;;4956018;28;20205;-74
2021/06/16 04:07:02;;;;;;;10.97;6.53;;;;;;;;;;4957977;28;20216;-75
2021/06/16 04:09:29;;;;;;;11.93;6.70;;;;;;;;;;4955948;28;20429;-74
2021/06/16 04:11:56;;;;;;;9.90;6.43;;;;;;;;;;4954008;28;20328;-72
2021/06/16 04:14:24;;;;;;;11.90;6.80;;;;;;;;;;4958578;28;20213;-73
2021/06/16 04:16:54;;;;;;;8.93;6.17;;;;;;;;;;4960581;28;20202;-74
2021/06/16 04:19:23;;;;;;;8.43;6.07;;;;;;;;;;4956175;28;20570;-74
2021/06/16 04:21:50;;;;;;;9.13;5.90;;;;;;;;;;4962742;28;20316;-75
2021/06/16 04:24:17;;;;;;;11.00;5.77;;;;;;;;;;4964916;28;20304;-73
2021/06/16 04:26:44;;;;;;;10.23;5.90;;;;;;;;;;4969991;28;20300;-74
2021/06/16 04:29:12;;;;;;;8.07;5.90;;;;;;;;;;4968528;28;20212;-71
2021/06/16 04:31:39;;;;;;;9.93;5.47;;;14.80;99.90;;;;;;4958385;28;20239;-72
2021/06/16 04:34:05;;;;;;;15.67;5.60;;;18.70;99.90;;;;;;4959906;28;20316;-72
2021/06/16 04:36:34;;;;;;;12.77;5.57;;;19.00;99.90;;;;;;4963081;28;20206;-73
2021/06/16 04:39:01;;;;;;;10.23;5.17;;;19.40;99.90;;;;;;4959620;28;20335;-72
2021/06/16 04:41:28;;;;;;;12.57;5.60;;;19.50;99.90;;;;;;4960890;28;20764;-72
2021/06/16 04:43:55;;;;;;;15.20;6.00;;;19.40;99.90;;;;;;4961603;28;20210;-72
2021/06/16 04:46:24;;;;;;;10.33;6.10;;;19.30;99.90;;;;;;4957981;28;20233;-73
2021/06/16 04:48:51;;;;;;;12.90;5.97;;;19.50;99.90;;;;;;4970152;28;20229;-75
2021/06/16 04:51:18;;;;;;;11.27;5.67;;;19.50;99.90;;;;;;4972173;28;20231;-74
2021/06/16 04:53:46;;;;;;;12.70;6.07;;;19.60;99.90;;;;;;4969240;28;20621;-75
2021/06/16 04:56:13;;;;;;;12.93;5.77;;;19.60;99.90;;;;;;4968335;28;20288;-74
2021/06/16 04:58:40;;;;;;;10.83;5.77;;;19.70;99.90;;;;;;4964963;28;20308;-74
2021/06/16 05:01:07;;;;;;;12.17;6.30;;;19.70;99.90;;;;;;4969784;28;20230;-74
2021/06/16 05:03:34;;;;;;;17.20;6.37;;;19.70;99.90;;;;;;4970911;28;20215;-74
2021/06/16 05:06:01;;;;;;;7.60;5.83;;;20.10;99.90;;;;;;4969108;28;20229;-75
2021/06/16 05:08:28;;;;;;;12.43;5.80;;;20.50;99.90;;;;;;4971793;28;20232;-75
2021/06/16 05:10:56;;;;;;;10.83;6.00;;;20.80;99.90;;;;;;4967779;28;20312;-75
2021/06/16 05:13:24;;;;;;;8.87;5.77;;;20.70;99.90;;;;;;4968451;28;20483;-75
2021/06/16 05:15:52;;;;;;;10.60;5.67;;;20.90;99.90;;;;;;4967481;28;20654;-76
2021/06/16 05:18:19;;;;;;;12.47;5.47;;;21.10;99.90;;;;;;4967706;28;20293;-76
2021/06/16 05:20:46;;;;;;;11.67;5.63;;;21.30;99.90;;;;;;4968215;28;20405;-76
2021/06/16 05:23:13;;;;;;;11.33;5.67;;;21.60;99.90;;;;;;4966244;28;20300;-77
2021/06/16 05:25:42;;;;;;;16.17;5.90;;;22.20;99.90;;;;;;4964309;28;20313;-76
2021/06/16 05:28:10;;;;;;;10.13;5.40;;;22.60;99.90;;;;;;4965673;28;20545;-75
2021/06/16 05:30:37;;;;;;;15.33;5.80;;;22.60;99.90;;;;;;4964643;28;20862;-74
2021/06/16 05:33:05;;;;;;;11.37;5.43;;;22.60;99.90;;;;;;4967565;28;20216;-75
2021/06/16 05:35:32;;;;;;;13.43;5.50;;;22.70;99.90;;;;;;4966776;28;20292;-74
2021/06/16 05:37:59;;;;;;;13.53;5.53;;;22.50;99.90;;;;;;4967382;28;20209;-75
2021/06/16 05:40:26;;;;;;;13.40;5.17;;;22.70;99.90;;;;;;4966697;28;20207;-74
2021/06/16 05:42:53;;;;;;;14.43;5.60;;;22.50;99.90;;;;;;4967537;28;21033;-75
2021/06/16 05:45:21;;;;;;;9.27;5.00;;;22.30;99.90;;;;;;4967592;28;20806;-75
2021/06/16 05:47:48;;;;;;;8.10;5.33;;;22.00;99.90;;;;;;4967499;28;20216;-74
2021/06/16 05:50:16;;;;;;;16.83;5.30;;;21.70;99.90;;;;;;4964324;28;20305;-75
2021/06/16 05:52:44;;;;;;;10.67;5.27;;;21.60;99.90;;;;;;4967245;28;20264;-74
2021/06/16 05:55:12;;;;;;;8.83;5.10;;;21.50;99.90;;;;;;4968357;28;20209;-75
2021/06/16 05:57:39;;;;;;;12.07;5.27;;;21.50;99.90;;;;;;4969577;28;20672;-75
2021/06/16 06:00:09;;;;;;;10.93;5.47;;;21.30;99.90;;;;;;4968019;28;20299;-75
2021/06/16 06:02:37;;;;;;;12.70;4.87;;;21.20;99.90;;;;;;4967981;28;20241;-75
2021/06/16 06:05:05;;;;;;;7.60;4.77;;;21.00;99.90;;;;;;4968520;28;20209;-74
2021/06/16 06:07:32;;;;;;;10.27;4.93;;;21.30;99.90;;;;;;4967738;28;20319;-75
2021/06/16 06:09:59;;;;;;;8.93;4.90;;;21.80;99.90;;;;;;4966996;28;20296;-74
2021/06/16 06:12:26;;;;;;;9.50;4.80;;;21.80;99.90;;;;;;4966916;28;20667;-75
2021/06/16 06:14:53;;;;;;;9.57;4.97;;;22.00;99.90;;;;;;4968967;28;20217;-75
2021/06/16 06:17:20;;;;;;;9.53;5.13;;;22.30;99.90;;;;;;4968374;28;20766;-75
2021/06/16 06:19:48;;;;;;;8.83;4.30;;;23.00;99.90;;;;;;4968384;28;20237;-75
2021/06/16 06:22:15;;;;;;;10.57;4.00;;;;;;;;;;4968299;28;20233;-75
2021/06/16 06:24:42;;;;;;;7.80;4.10;;;;;;;;;;4967645;28;20220;-75
2021/06/16 06:27:09;;;;;;;13.07;3.50;;;;;;;;;;4968452;28;20247;-75
2021/06/16 06:29:36;;;;;;;9.40;3.87;;;;;;;;;;4967341;28;20245;-75
2021/06/16 06:32:04;;;;;;;9.27;4.33;;;;;;;;;;4967671;28;20316;-75
2021/06/16 06:34:31;;;;;;;6.47;4.00;;;;;;;;;;4962137;28;20212;-75
2021/06/16 06:37:00;;;;;;;10.87;4.20;;;23.90;99.90;;;;;;4956056;28;20219;-75
2021/06/16 06:39:28;;;;;;;9.00;3.80;;;27.60;99.90;;;;;;4953277;28;20242;-75
2021/06/16 06:41:55;;;;;;;6.40;3.30;;;29.20;99.90;;;;;;4960662;28;20245;-75
2021/06/16 06:44:22;;;;;;;10.00;3.20;;;30.90;99.90;;;;;;4960826;28;20206;-75
2021/06/16 06:46:49;;;;;;;5.80;3.50;;;31.20;99.90;;;;;;4963111;28;20364;-75
2021/06/16 06:49:16;;;;;;;7.20;3.42;;;31.20;99.90;;;;;;4959952;28;20676;-75
2021/06/16 06:51:43;;;;;;;8.23;3.33;;;30.90;99.90;;;;;;4964274;28;20712;-76
2021/06/16 06:54:11;;;;;;;8.05;3.20;;;31.50;99.90;;;;;;4960278;28;20662;-76
2021/06/16 06:56:39;;;;;;;15.80;3.53;;;31.70;99.90;;;;;;4964383;28;20634;-75
2021/06/16 06:59:06;;;;;;;8.65;3.10;;;31.70;99.90;;;;;;4960357;28;20297;-75
2021/06/16 07:01:33;;;;;;;6.00;3.30;;;32.20;99.90;;;;;;4967946;28;20337;-73
2021/06/16 07:04:01;;;;;;;8.15;3.60;;;33.20;99.90;;;;;;4964242;28;20214;-73
2021/06/16 07:06:30;;;;;;;8.95;3.38;;;33.10;99.90;;;;;;4967992;28;20298;-73
2021/06/16 07:08:57;;;;;;;8.45;3.47;;;33.10;99.90;;;;;;4964576;28;20303;-74
2021/06/16 07:11:25;;;;;;;9.50;3.50;;;33.00;99.90;;;;;;4966102;28;20741;-74
2021/06/16 07:13:52;;;;;;;5.45;3.45;;;33.30;99.90;;;;;;4964401;28;20205;-73
2021/06/16 07:16:20;;;;;;;6.03;3.55;;;33.20;99.90;;;;;;4967881;28;20201;-74
2021/06/16 07:18:48;;;;;;;13.15;3.72;;;33.30;99.90;;;;;;4964209;28;20209;-74
2021/06/16 07:21:15;;;;;;;13.85;3.50;;;33.50;99.90;;;;;;4966588;28;20229;-74
2021/06/16 07:23:41;;;;;;;10.38;3.25;;;33.50;99.90;;;;;;4968532;28;20295;-73
2021/06/16 07:26:09;;;;;;;14.23;3.85;;;33.40;99.90;;;;;;4967906;28;20228;-74
2021/06/16 07:28:37;;;;;;;12.73;4.03;;;33.90;99.90;;;;;;4962844;28;20804;-74
2021/06/16 07:31:04;;;;;;;7.57;3.90;;;34.00;99.90;;;;;;4962673;28;20727;-74
2021/06/16 07:33:32;;;;;;;9.50;3.72;;;34.10;99.90;;;;;;4965545;28;20304;-73
2021/06/16 07:35:59;;;;;;;4.80;3.40;;;34.50;99.90;;;;;;4961329;28;20575;-74
2021/06/16 07:38:25;;;;;;;6.30;3.55;;;34.90;99.90;;;;;;4967944;28;20780;-73
2021/06/16 07:40:53;;;;;;;6.72;3.97;;;34.50;99.90;;;;;;4969541;28;20276;-74
2021/06/16 07:43:20;;;;;;;7.90;4.50;;;35.10;99.90;;;;;;4968741;28;20305;-74
2021/06/16 07:45:48;;;;;;;8.20;3.60;;;34.90;99.90;;;;;;4968903;28;20289;-74
2021/06/16 07:48:15;;;;;;;7.05;4.03;;;35.10;99.90;;;;;;4969521;28;20209;-74
2021/06/16 07:50:42;;;;;;;11.82;4.75;;;35.70;99.90;;;;;;4967589;28;20267;-73
2021/06/16 07:53:10;;;;;;;11.68;4.63;;;34.70;99.90;;;;;;4966908;28;20224;-73
2021/06/16 07:55:39;;;;;;;12.00;4.45;;;34.20;99.90;;;;;;4968043;28;20224;-71
2021/06/16 07:58:07;;;;;;;10.18;4.57;;;33.40;99.90;;;;;;4968741;28;20308;-71
2021/06/16 08:00:34;;;;;;;7.53;4.22;;;33.20;99.90;;;;;;4969163;28;20235;-72
2021/06/16 08:03:03;;;;;;;9.20;4.55;;;33.70;99.90;;;;;;4971163;28;20327;-72
2021/06/16 08:05:30;;;;;;;12.48;4.00;;;33.60;99.90;;;;;;4966889;28;20232;-72
2021/06/16 08:07:57;;;;;;;9.10;3.87;;;33.10;99.90;;;;;;4983281;23;20608;-74
2021/06/16 08:10:24;;;;;;;11.40;4.22;;;34.20;99.90;;;;;;4953650;28;20255;-75
2021/06/16 08:12:51;;;;;;;10.02;4.10;;;34.40;99.90;;;;;;4944673;28;20226;-75
2021/06/16 08:15:18;;;;;;;10.52;4.40;;;34.80;99.90;;;;;;4944287;28;20207;-75
2021/06/16 08:17:45;;;;;;;9.00;3.72;;;35.40;99.90;;;;;;4947453;28;20202;-74
2021/06/16 08:20:21;;;;;;;13.60;4.50;;;35.40;99.90;;;;;;4948039;29;20293;-74
2021/06/16 08:22:48;;;;;;;8.70;3.92;;;34.80;99.90;;;;;;4949330;29;20676;-74
2021/06/16 08:25:15;;;;;;;10.02;4.10;;;35.00;99.90;;;;;;4951125;29;20254;-75
2021/06/16 08:27:43;;;;;;;8.90;4.15;;;34.90;99.90;;;;;;4948837;29;20254;-75
2021/06/16 08:30:11;;;;;;;9.25;4.18;;;34.20;99.90;;;;;;4949253;29;20245;-73
2021/06/16 08:32:40;;;;;;;7.35;4.10;;;33.90;99.90;;;;;;4948962;28;20233;-75
2021/06/16 08:35:08;;;;;;;7.07;4.10;;;33.30;99.90;;;;;;4949748;29;20295;-75
2021/06/16 08:37:37;;;;;;;12.02;4.30;;;33.00;99.90;;;;;;4949740;29;20303;-74
2021/06/16 08:40:05;;;;;;;9.73;4.00;;;33.70;99.90;;;;;;4949307;29;20303;-74
2021/06/16 08:42:41;;;;;;;8.23;4.07;;;34.40;99.90;;;;;;4947791;29;20665;-74
2021/06/16 08:45:12;;;;;;;8.25;3.97;;;34.40;99.90;;;;;;4950876;29;20583;-74
2021/06/16 08:47:38;;;;;;;10.23;3.97;;;34.10;99.90;;;;;;4945159;28;20320;-74
2021/06/16 08:50:08;;;;;;;7.63;4.05;;;34.30;99.90;;;;;;4949728;28;20265;-73
2021/06/16 08:52:37;;;;;;;10.32;4.38;;;34.70;99.90;;;;;;4947721;28;20273;-73
2021/06/16 08:55:08;;;;;;;7.43;4.00;;;35.20;99.90;;;;;;4950842;28;20264;-75
2021/06/16 08:57:35;;;;;;;9.35;4.30;;;35.30;99.90;;;;;;4950380;28;20277;-74
2021/06/16 09:00:04;;;;;;;8.15;4.13;;;36.00;99.90;;;;;;4949286;28;20210;-76
2021/06/16 09:02:34;;;;;;;5.85;3.53;;;35.70;99.90;;;;;;4949415;29;20237;-75
2021/06/16 09:05:01;;;;;;;9.18;4.05;;;34.50;99.90;;;;;;4949891;29;20469;-74
2021/06/16 09:07:31;;;;;;;12.63;4.47;;;34.30;99.90;;;;;;4948668;29;20227;-74
2021/06/16 09:10:14;;;;;;;8.57;3.97;;;34.00;99.90;;;;;;4949590;29;20308;-74
2021/06/16 09:12:45;;;;;;;10.23;4.63;;;32.90;99.90;;;;;;4950006;29;20590;-75
2021/06/16 09:15:17;;;;;;;12.05;4.45;;;32.30;99.90;;;;;;4947648;28;20242;-74
2021/06/16 09:18:00;;;;;;;9.47;4.20;;;31.50;99.90;;;;;;4948644;29;20210;-73
2021/06/16 09:20:27;;;;;;;9.37;4.47;;;30.50;99.90;;;;;;4948893;29;20650;-75
2021/06/16 09:23:09;;;;;;;12.17;5.17;;;29.80;99.90;;;;;;4949400;29;20225;-74
2021/06/16 09:25:37;;;;;;;8.43;4.90;;;29.60;99.90;;;;;;4948985;28;20763;-74
2021/06/16 09:28:05;;;;;;;11.03;4.70;;;29.20;99.90;;;;;;4946527;29;20318;-74
2021/06/16 09:30:41;;;;;;;10.07;5.07;;;29.10;99.90;;;;;;4946930;29;20224;-75
2021/06/16 09:33:18;;;;;;;12.53;5.03;;;29.00;99.90;;;;;;4949097;29;20584;-73
2021/06/16 09:35:48;;;;;;;16.80;5.53;;;28.90;99.90;;;;;;4946270;29;20239;-73
2021/06/16 09:38:23;;;;;;;13.07;5.33;;;28.70;99.90;;;;;;4948980;29;20347;-73
2021/06/16 09:40:52;;;;;;;8.00;5.03;;;28.30;99.90;;;;;;4946390;29;20246;-73
2021/06/16 09:43:21;;;;;;;10.23;4.80;;;28.30;99.90;;;;;;4948770;28;20658;-75
2021/06/16 09:45:54;;;;;;;13.57;5.10;;;28.20;99.90;;;;;;4948240;28;20303;-75
2021/06/16 09:48:33;;;;;;;12.67;4.60;;;28.50;99.90;;;;;;4949644;29;20235;-76
2021/06/16 09:51:18;;;;;;;7.73;4.70;;;28.70;99.90;;;;;;4947493;29;20228;-75
2021/06/16 09:54:00;;;;;;;14.47;5.07;;;28.90;99.90;;;;;;4948224;29;20222;-75
2021/06/16 09:56:32;;;;;;;7.37;4.53;;;28.80;99.90;;;;;;4948656;28;20648;-74
2021/06/16 09:59:00;;;;;;;7.87;4.80;;;28.50;99.90;;;;;;4946396;28;20206;-73
2021/06/16 10:01:49;;;;;;;7.37;5.10;;;28.60;99.90;;;;;;4949094;29;20239;-74
2021/06/16 10:04:40;;;;;;;7.83;4.67;;;28.70;99.90;;;;;;4948780;29;20206;-74
2021/06/16 10:07:18;;;;;;;7.90;4.13;;;28.60;99.90;;;;;;4949510;28;20237;-74
2021/06/16 10:10:07;;;;;;;6.17;4.53;;;28.80;99.90;;;;;;4946543;28;20237;-74
2021/06/16 10:12:38;;;;;;;6.83;4.23;;;29.00;99.90;;;;;;4946536;28;20307;-74
2021/06/16 10:15:07;;;;;;;5.93;4.33;;;29.20;99.90;;;;;;4947527;29;20297;-75
2021/06/16 10:17:34;;;;;;;7.67;4.30;;;29.40;99.90;;;;;;4948179;29;20382;-74
2021/06/16 10:20:02;;;;;;;7.63;4.53;;;29.70;99.90;;;;;;4948878;29;20219;-74
2021/06/16 10:22:29;;;;;;;7.57;5.03;;;30.00;99.90;;;;;;4947900;29;20233;-74
2021/06/16 10:24:56;;;;;;;6.50;4.03;;;29.70;99.90;;;;;;4945945;28;20246;-76
2021/06/16 10:27:30;;;;;;;9.63;4.33;;;29.60;99.90;;;;;;4947052;28;20318;-75
2021/06/16 10:30:05;;;;;;;7.83;4.37;;;29.70;99.90;;;;;;4946960;29;20304;-75
2021/06/16 10:32:40;;;;;;;6.30;4.53;;;29.60;99.90;;;;;;4946376;29;20652;-75
2021/06/16 10:35:12;;;;;;;9.20;4.80;;;29.40;99.90;;;;;;4948649;28;20209;-75
2021/06/16 10:37:41;;;;;;;7.87;4.20;;;29.40;99.90;;;;;;4951879;28;20205;-74
2021/06/16 10:40:46;;;;;;;5.77;4.20;;;29.50;99.90;;;;;;4952128;28;20212;-74
2021/06/16 10:43:16;;;;;;;9.43;4.60;;;29.80;99.90;;;;;;4952021;29;20708;-74
2021/06/16 10:46:00;;;;;;;6.53;4.20;;;29.90;99.90;;;;;;4951616;29;20213;-75
2021/06/16 10:48:51;;;;;;;8.40;4.37;;;29.90;99.90;;;;;;4948636;28;20582;-75
2021/06/16 10:51:29;;;;;;;8.53;4.47;;;30.00;99.90;;;;;;4952658;29;20241;-75
2021/06/16 10:54:21;;;;;;;7.20;4.70;;;30.10;99.90;;;;;;4950386;28;20217;-74
2021/06/16 10:56:54;;;;;;;9.53;4.57;;;30.00;99.90;;;;;;4950332;29;20210;-74
2021/06/16 11:00:01;;;;;;;6.93;4.33;;;30.10;99.90;;;;;;4952514;29;20221;-74
2021/06/16 11:03:03;;;;;;;7.97;4.43;;;30.10;99.90;;;;;;4951849;28;20262;-74
2021/06/16 11:05:44;;;;;;;7.67;4.83;;;29.90;99.90;;;;;;4948800;28;20209;-74
2021/06/16 11:08:31;;;;;;;7.27;4.60;;;29.90;99.90;;;;;;4948259;29;20235;-75
2021/06/16 11:10:58;;;;;;;11.47;4.60;;;29.70;99.90;;;;;;4949427;28;20269;-75
2021/06/16 11:13:42;;;;;;;6.77;4.23;;;29.60;99.90;;;;;;4952709;29;20258;-74
2021/06/16 11:16:40;;;;;;;9.53;4.20;;;29.50;99.90;;;;;;4951555;29;20218;-75
2021/06/16 11:19:49;;;;;;;6.27;4.70;;;29.20;99.90;;;;;;4949182;28;20683;-76
2021/06/16 11:22:37;;;;;;;6.37;4.37;;;29.20;99.90;;;;;;4949902;29;20325;-75
2021/06/16 11:25:09;;;;;;;6.57;4.10;;;29.10;99.90;;;;;;4950268;29;20288;-76
2021/06/16 11:27:58;;;;;;;7.13;4.27;;;29.20;99.90;;;;;;4950998;29;20239;-75
2021/06/16 11:30:33;;;;;;;11.70;4.63;;;29.60;99.90;;;;;;4951404;29;20216;-76
2021/06/16 11:33:35;;;;;;;8.90;4.40;;;29.70;99.90;;;;;;4948258;28;20244;-76
2021/06/16 11:36:07;;;;;;;7.53;4.13;;;29.60;99.90;;;;;;4950049;29;20218;-74
2021/06/16 11:38:36;;;;;;;8.03;4.17;;;29.50;99.90;;;;;;4950141;29;20235;-74
2021/06/16 11:41:07;;;;;;;11.27;4.10;;;29.60;99.90;;;;;;4952579;28;20311;-75
2021/06/16 11:43:38;;;;;;;6.93;4.10;;;29.50;99.90;;;;;;4949249;29;20220;-76
2021/06/16 11:46:11;;;;;;;12.23;4.33;;;29.60;99.90;;;;;;4949092;29;20299;-75
2021/06/16 11:48:38;;;;;;;5.87;4.20;;;29.60;99.90;;;;;;4946945;28;20233;-74
2021/06/16 11:51:08;;;;;;;6.17;4.43;;;29.80;99.90;;;;;;4951490;28;20240;-75
2021/06/16 11:53:36;;;;;;;7.53;4.00;;;29.90;99.90;;;;;;4950681;29;20240;-76
2021/06/16 11:56:04;;;;;;;9.37;4.30;;;30.10;99.90;;;;;;4953067;29;20221;-76
2021/06/16 11:58:34;;;;;;;7.30;4.40;;;30.40;99.90;;;;;;4951359;29;20221;-74
2021/06/16 12:01:06;;;;;;;9.30;4.33;;;30.40;99.90;;;;;;4951265;29;20230;-74
2021/06/16 12:03:33;;;;;;;8.90;4.17;;;30.30;99.90;;;;;;4950780;28;20703;-76
2021/06/16 12:06:01;;;;;;;5.53;3.67;;;30.40;99.90;;;;;;4953977;29;20251;-76
2021/06/16 12:08:30;;;;;;;10.27;4.70;;;30.40;99.90;;;;;;4950892;28;20396;-75
2021/06/16 12:10:57;;;;;;;9.53;4.10;;;30.60;99.90;;;;;;4950351;28;20262;-74
2021/06/16 12:13:25;;;;;;;5.97;4.43;;;30.50;99.90;;;;;;4952433;28;20218;-74
2021/06/16 12:15:52;;;;;;;7.60;3.47;;;30.30;99.90;;;;;;4951739;29;20335;-76
2021/06/16 12:18:19;;;;;;;8.37;4.10;;;30.40;99.90;;;;;;4949196;28;20294;-74
2021/06/16 12:20:47;;;;;;;8.10;4.03;;;30.50;99.90;;;;;;4948578;29;20235;-73
2021/06/16 12:23:26;;;;;;;7.53;4.50;;;30.20;99.90;;;;;;4950335;28;20289;-73
2021/06/16 12:26:05;;;;;;;8.53;4.30;;;30.10;99.90;;;;;;4948501;28;20653;-73
2021/06/16 12:28:34;;;;;;;6.67;3.80;;;30.00;99.90;;;;;;4950735;29;20324;-73
2021/06/16 12:31:02;;;;;;;5.57;3.83;;;30.10;99.90;;;;;;4948665;28;20230;-73
2021/06/16 12:33:40;;;;;;;9.87;4.37;;;30.20;99.90;;;;;;4950082;29;20214;-74
2021/06/16 12:36:18;;;;;;;8.87;4.20;;;30.20;99.90;;;;;;4949069;28;20210;-74
2021/06/16 12:38:46;;;;;;;5.37;4.53;;;30.30;99.90;;;;;;4950629;29;20293;-76
2021/06/16 12:41:32;;;;;;;6.17;4.57;;;30.60;99.90;;;;;;4949921;28;20426;-75
2021/06/16 12:44:20;;;;;;;8.00;4.20;;;30.90;99.90;;;;;;4949625;28;20641;-75
2021/06/16 12:46:52;;;;;;;5.53;3.93;;;30.60;99.90;;;;;;4948323;29;20206;-75
2021/06/16 12:49:20;;;;;;;7.00;4.30;;;30.20;99.90;;;;;;4949317;29;20226;-75
2021/06/16 12:51:48;;;;;;;8.47;4.43;;;30.50;99.90;;;;;;4949002;29;20317;-75
2021/06/16 12:54:27;;;;;;;7.37;4.47;;;30.60;99.90;;;;;;4949323;29;20242;-77
2021/06/16 12:57:07;;;;;;;8.87;4.13;;;30.80;99.90;;;;;;4949301;28;20645;-77
2021/06/16 12:59:37;;;;;;;4.57;3.50;;;30.80;99.90;;;;;;4946847;28;20202;-77
2021/06/16 13:02:05;;;;;;;11.20;4.10;;;31.10;99.90;;;;;;4949063;29;20281;-76
2021/06/16 13:04:49;;;;;;;7.93;4.20;;;31.20;99.90;;;;;;4951099;29;20270;-76
2021/06/16 13:07:17;;;;;;;7.57;3.87;;;31.10;99.90;;;;;;4948946;29;20224;-76
2021/06/16 13:10:02;;;;;;;5.47;3.57;;;31.20;99.90;;;;;;4948421;29;20321;-76
2021/06/16 13:12:30;;;;;;;7.77;4.00;;;31.20;99.90;;;;;;4949029;28;20226;-77
2021/06/16 13:14:59;;;;;;;7.40;3.80;;;31.30;99.90;;;;;;4945445;28;20206;-77
2021/06/16 13:17:26;;;;;;;6.20;3.93;;;31.10;99.90;;;;;;4946922;29;20677;-77